Home   Weather   Italy   Bologna   Past weeks
Flag for Italy

Past Weather in Bologna, Italy — Yesterday and Last 2 Weeks

Currently: 52 °F. Scattered clouds. (Weather station: Bologna / Borgo Panigale, Italy). See more current weather

Past Weather in Bologna — Graph

°F

Bologna Temperature Yesterday

Maximum temperature yesterday: 55 °F (at 1:20 pm)
Minimum temperature yesterday: 37 °F (at 4:20 am)
Average temperature yesterday: 47 °F

High & Low Weather Summary for the Past Weeks

 TemperatureHumidityPressure
High79 °F (Apr 1, 3:50 pm)100% (Apr 4, 4:50 am)30.33 "Hg (Apr 4, 4:50 am)
Low30 °F (Apr 7, 5:20 am)19% (Apr 7, 5:50 pm)29.53 "Hg (Apr 6, 5:20 am)
Average52 °F64%30.04 "Hg
* Reported Mar 31 12:20 pm — Apr 15 12:50 pm, Bologna. Weather by CustomWeather, © 2021

Note: Actual official high and low records may vary slightly from our data, if they occured in-between our weather recording intervals... More about our weather records

Bologna Weather History for the Previous 24 Hours

Scroll right to see more
 ConditionsComfort  
Time TempWeatherWind HumidityBarometerVisibility
12:50 pm
Thu, Apr 15
52 °FScattered clouds.13 mph54%30.18 "HgN/A
12:20 pm54 °FPassing clouds.12 mph63%30.18 "HgN/A
11:50 am50 °FPassing clouds.9 mph67%30.18 "HgN/A
11:20 am48 °FPassing clouds.8 mph66%30.18 "HgN/A
10:50 am46 °FScattered clouds.7 mph71%30.18 "HgN/A
10:20 am45 °FScattered clouds.6 mph76%30.18 "HgN/A
9:50 am43 °FScattered clouds.2 mph81%30.18 "HgN/A
9:20 am43 °FSunny.1 mph81%30.18 "Hg10 mi
8:50 am41 °FSunny.1 mph87%30.18 "Hg10 mi
8:20 am39 °FSunny.2 mph87%30.18 "Hg10 mi
7:50 am37 °FSunny.5 mph93%30.15 "Hg10 mi
7:20 am37 °FSunny.1 mph87%30.15 "Hg10 mi
6:50 am36 °FSunny.3 mph93%30.15 "Hg10 mi
6:20 am36 °FClear.1 mph87%30.15 "Hg10 mi
5:20 am36 °FClear.2 mph87%30.15 "Hg10 mi
4:50 am37 °FClear.2 mph87%30.15 "Hg10 mi
4:20 am36 °FClear.3 mph87%30.15 "Hg10 mi
3:20 am37 °FClear.5 mph87%30.15 "Hg10 mi
2:50 am37 °FClear.3 mph81%30.15 "Hg10 mi
2:20 am37 °FClear.3 mph87%30.15 "Hg10 mi
1:50 am37 °FClear.6 mph87%30.15 "Hg10 mi
1:20 am37 °FClear.3 mph81%30.15 "Hg10 mi
12:50 am39 °FClear.5 mph81%30.18 "Hg10 mi
12:20 am41 °FClear.6 mph76%30.18 "Hg10 mi
11:50 pm
Wed, Apr 14
43 °FClear.7 mph71%30.18 "Hg10 mi
11:20 pm43 °FClear.6 mph71%30.18 "Hg10 mi
10:50 pm45 °FClear.6 mph61%30.18 "Hg10 mi
10:20 pm43 °FClear.6 mph66%30.18 "Hg10 mi
9:50 pm46 °FClear.9 mph53%30.15 "Hg10 mi
9:20 pm48 °FClear.10 mph50%30.15 "Hg10 mi
8:50 pm48 °FClear.8 mph54%30.15 "Hg10 mi
8:20 pm48 °FClear.9 mph58%30.15 "Hg10 mi
7:50 pm50 °FSunny.10 mph54%30.15 "Hg10 mi
7:20 pm52 °FSunny.15 mph50%30.15 "Hg10 mi
6:50 pm54 °FSunny.15 mph47%30.15 "Hg10 mi
6:20 pm54 °FSunny.15 mph47%30.15 "Hg10 mi
5:50 pm54 °FSunny.16 mph51%30.15 "Hg10 mi
5:20 pm54 °FPassing clouds.14 mph54%30.15 "HgN/A
4:50 pm55 °FPassing clouds.15 mph51%30.15 "HgN/A
4:20 pm54 °FScattered clouds.12 mph47%30.15 "HgN/A
3:50 pm55 °FScattered clouds.9 mph47%30.15 "HgN/A
3:20 pm55 °FScattered clouds.12 mph51%30.18 "HgN/A
2:50 pm55 °FScattered clouds.9 mph44%30.18 "HgN/A
2:20 pm55 °FScattered clouds.7 mph38%30.18 "HgN/A
Weather by CustomWeather, © 2021

See weather overview